createdAt,value
2024-05-09T00:00:39.200Z,75.31
2024-05-09T00:01:35.479Z,75.46
2024-05-09T00:02:34.477Z,75.68
2024-05-09T00:03:34.451Z,76.32
2024-05-09T00:04:34.508Z,76.27
2024-05-09T00:05:34.758Z,77.00
2024-05-09T00:06:34.411Z,77.07
2024-05-09T00:07:34.468Z,76.02
2024-05-09T00:08:34.582Z,74.90
2024-05-09T00:09:34.407Z,74.86
2024-05-09T00:10:37.345Z,75.70
2024-05-09T00:11:34.561Z,75.77
2024-05-09T00:12:34.916Z,75.28
2024-05-09T00:13:34.448Z,75.71
2024-05-09T00:14:34.471Z,75.11
2024-05-09T00:15:35.072Z,75.53
2024-05-09T00:16:34.417Z,75.77
2024-05-09T00:17:34.972Z,75.81
2024-05-09T00:18:34.521Z,75.93
2024-05-09T00:19:35.467Z,76.12
2024-05-09T00:20:38.784Z,76.07
2024-05-09T00:21:35.456Z,76.07
2024-05-09T00:22:34.573Z,75.75
2024-05-09T00:23:34.616Z,76.14
2024-05-09T00:24:34.480Z,75.25
2024-05-09T00:25:34.463Z,75.36
2024-05-09T00:26:34.498Z,76.21
2024-05-09T00:27:34.883Z,75.58
2024-05-09T00:28:34.450Z,75.22
2024-05-09T00:29:34.539Z,75.69
2024-05-09T00:30:36.621Z,75.14
2024-05-09T00:31:34.457Z,75.46
2024-05-09T00:32:34.573Z,75.82
2024-05-09T00:33:34.684Z,76.42
2024-05-09T00:34:34.493Z,76.05
2024-05-09T00:35:34.607Z,74.75
2024-05-09T00:36:34.461Z,75.83
2024-05-09T00:37:34.895Z,74.88
2024-05-09T00:38:34.481Z,73.94
2024-05-09T00:39:34.499Z,74.88
2024-05-09T00:40:39.173Z,75.31
2024-05-09T00:41:35.597Z,75.35
2024-05-09T00:42:34.511Z,75.53
2024-05-09T00:43:34.478Z,75.81
2024-05-09T00:44:34.533Z,75.54
2024-05-09T00:45:34.548Z,75.79
2024-05-09T00:46:34.490Z,75.24
2024-05-09T00:47:34.747Z,73.77
2024-05-09T00:48:34.657Z,74.41
2024-05-09T00:49:34.709Z,75.04
2024-05-09T00:50:36.881Z,73.90
2024-05-09T00:51:34.511Z,75.01
2024-05-09T00:52:34.575Z,74.38
2024-05-09T00:53:34.677Z,74.81
2024-05-09T00:54:34.514Z,73.69
2024-05-09T00:55:34.517Z,75.18
2024-05-09T00:56:34.556Z,73.79
2024-05-09T00:57:34.523Z,73.43
2024-05-09T00:58:34.515Z,74.67
2024-05-09T00:59:34.600Z,73.99
2024-05-09T01:00:39.184Z,73.57
2024-05-09T01:01:35.571Z,73.69
2024-05-09T01:02:34.605Z,73.75
2024-05-09T01:03:34.689Z,73.97
2024-05-09T01:04:34.536Z,73.77
2024-05-09T01:05:35.025Z,72.80
2024-05-09T01:06:34.541Z,72.52
2024-05-09T01:07:34.914Z,71.59
2024-05-09T01:08:34.652Z,72.84
2024-05-09T01:09:34.526Z,73.55
2024-05-09T01:10:35.785Z,73.05
2024-05-09T01:11:34.604Z,73.66
2024-05-09T01:12:34.615Z,72.52
2024-05-09T01:13:34.531Z,71.95
2024-05-09T01:14:34.587Z,71.72
2024-05-09T01:15:34.642Z,73.72
2024-05-09T01:16:34.539Z,72.63
2024-05-09T01:17:34.812Z,73.17
2024-05-09T01:18:34.712Z,72.13
2024-05-09T01:19:34.595Z,71.61
2024-05-09T01:20:41.266Z,71.06
2024-05-09T01:21:35.583Z,71.12
2024-05-09T01:22:34.882Z,71.26
2024-05-09T01:23:34.590Z,71.40
2024-05-09T01:24:34.555Z,71.72
2024-05-09T01:25:34.573Z,70.82
2024-05-09T01:26:34.601Z,72.37
2024-05-09T01:27:34.574Z,71.06
2024-05-09T01:28:34.552Z,70.00
2024-05-09T01:29:34.634Z,70.71
2024-05-09T01:30:36.946Z,71.18
2024-05-09T01:31:34.614Z,71.48
2024-05-09T01:32:34.743Z,72.95
2024-05-09T01:33:34.896Z,69.56
2024-05-09T01:34:34.563Z,70.71
2024-05-09T01:35:34.685Z,70.68
2024-05-09T01:36:34.585Z,69.20
2024-05-09T01:37:34.932Z,69.69
2024-05-09T01:38:34.682Z,70.12
2024-05-09T01:39:34.601Z,71.03
2024-05-09T01:40:38.456Z,69.53
2024-05-09T01:41:35.621Z,69.62
2024-05-09T01:42:34.635Z,69.96
2024-05-09T01:43:34.619Z,70.48
2024-05-09T01:44:34.619Z,69.23
2024-05-09T01:45:34.598Z,69.75
2024-05-09T01:46:34.583Z,69.17
2024-05-09T01:47:34.857Z,69.58
2024-05-09T01:48:34.763Z,70.42
2024-05-09T01:49:34.897Z,68.27
2024-05-09T01:50:39.456Z,68.43
2024-05-09T01:51:35.604Z,68.47
2024-05-09T01:52:34.599Z,68.71
2024-05-09T01:53:34.791Z,69.29
2024-05-09T01:54:34.590Z,68.82
2024-05-09T01:55:34.627Z,69.18
2024-05-09T01:56:34.693Z,67.76
2024-05-09T01:57:34.625Z,68.37
2024-05-09T01:58:34.619Z,68.68
2024-05-09T01:59:34.650Z,67.44
2024-05-09T02:00:40.014Z,67.28
2024-05-09T02:01:55.598Z,67.36
2024-05-09T02:02:35.741Z,67.43
2024-05-09T02:03:34.795Z,67.85
2024-05-09T02:04:34.711Z,68.76
2024-05-09T02:05:34.800Z,68.89
2024-05-09T02:06:34.617Z,68.57
2024-05-09T02:07:34.623Z,68.77
2024-05-09T02:08:34.765Z,67.06
2024-05-09T02:09:34.697Z,68.03
2024-05-09T02:10:34.606Z,68.41
2024-05-09T02:11:34.705Z,67.00
2024-05-09T02:12:35.027Z,69.29
2024-05-09T02:13:34.612Z,67.90
2024-05-09T02:14:34.720Z,66.74
2024-05-09T02:15:34.628Z,66.62
2024-05-09T02:16:34.634Z,66.15
2024-05-09T02:17:35.058Z,66.38
2024-05-09T02:18:34.713Z,66.58
2024-05-09T02:19:34.754Z,67.09
2024-05-09T02:20:36.717Z,66.52
2024-05-09T02:21:34.725Z,67.30
2024-05-09T02:22:34.768Z,65.62
2024-05-09T02:23:35.460Z,65.96
2024-05-09T02:24:34.825Z,65.63
2024-05-09T02:25:35.020Z,66.80
2024-05-09T02:26:34.893Z,65.40
2024-05-09T02:27:34.916Z,65.81
2024-05-09T02:28:34.965Z,66.01
2024-05-09T02:29:35.029Z,66.46
2024-05-09T02:30:39.694Z,64.72
2024-05-09T02:31:36.022Z,64.85
2024-05-09T02:32:35.110Z,65.15
2024-05-09T02:33:35.239Z,65.35
2024-05-09T02:34:35.017Z,64.76
2024-05-09T02:35:35.138Z,64.24
2024-05-09T02:36:35.020Z,65.08
2024-05-09T02:37:35.247Z,65.58
2024-05-09T02:38:35.064Z,65.69
2024-05-09T02:39:35.023Z,64.23
2024-05-09T02:40:37.806Z,64.32
2024-05-09T02:41:35.089Z,64.41
2024-05-09T02:42:34.990Z,64.43
2024-05-09T02:43:35.000Z,64.79
2024-05-09T02:44:35.038Z,65.03
2024-05-09T02:45:35.014Z,64.58
2024-05-09T02:46:34.998Z,65.46
2024-05-09T02:47:35.134Z,64.43
2024-05-09T02:48:35.100Z,62.63
2024-05-09T02:49:35.061Z,64.33
2024-05-09T02:50:39.104Z,63.62
2024-05-09T02:51:36.009Z,63.71
2024-05-09T02:52:35.020Z,63.78
2024-05-09T02:53:35.107Z,64.24
2024-05-09T02:54:35.023Z,65.12
2024-05-09T02:55:35.060Z,65.09
2024-05-09T02:56:35.112Z,62.78
2024-05-09T02:57:35.030Z,62.72
2024-05-09T02:58:35.030Z,63.74
2024-05-09T02:59:35.073Z,62.49
2024-05-09T03:00:39.498Z,62.18
2024-05-09T03:01:36.121Z,62.33
2024-05-09T03:02:35.157Z,62.43
2024-05-09T03:03:35.223Z,63.00
2024-05-09T03:04:35.211Z,64.10
2024-05-09T03:05:35.200Z,64.19
2024-05-09T03:06:35.051Z,62.19
2024-05-09T03:07:35.055Z,63.23
2024-05-09T03:08:35.233Z,62.77
2024-05-09T03:09:35.042Z,63.27
2024-05-09T03:10:37.247Z,63.20
2024-05-09T03:11:35.140Z,63.23
2024-05-09T03:12:37.887Z,63.14
2024-05-09T03:13:35.058Z,63.29
2024-05-09T03:14:35.101Z,63.44
2024-05-09T03:15:35.052Z,63.37
2024-05-09T03:16:35.077Z,63.38
2024-05-09T03:17:35.230Z,64.49
2024-05-09T03:18:35.157Z,62.27
2024-05-09T03:19:35.122Z,62.23
2024-05-09T03:20:36.318Z,61.52
2024-05-09T03:21:35.086Z,62.78
2024-05-09T03:22:35.092Z,63.37
2024-05-09T03:23:35.138Z,62.13
2024-05-09T03:24:35.064Z,62.92
2024-05-09T03:25:35.111Z,62.30
2024-05-09T03:26:35.152Z,60.16
2024-05-09T03:27:35.101Z,61.41
2024-05-09T03:28:35.079Z,61.77
2024-05-09T03:29:35.120Z,61.93
2024-05-09T03:30:40.501Z,61.65
2024-05-09T03:31:36.126Z,60.69
2024-05-09T03:32:35.283Z,61.94
2024-05-09T03:33:35.437Z,62.09
2024-05-09T03:34:35.113Z,61.66
2024-05-09T03:35:35.227Z,62.16
2024-05-09T03:36:35.120Z,60.21
2024-05-09T03:37:35.131Z,62.42
2024-05-09T03:38:35.181Z,59.12
2024-05-09T03:39:35.112Z,61.04
2024-05-09T03:40:35.142Z,59.09
2024-05-09T03:41:35.176Z,61.09
2024-05-09T03:42:35.140Z,60.88
2024-05-09T03:43:35.112Z,60.18
2024-05-09T03:44:35.167Z,58.93
2024-05-09T03:45:35.117Z,60.89
2024-05-09T03:46:35.128Z,59.55
2024-05-09T03:47:35.662Z,59.71
2024-05-09T03:48:35.245Z,58.95
2024-05-09T03:49:35.157Z,59.15
2024-05-09T03:50:36.337Z,60.33
2024-05-09T03:51:35.127Z,58.61
2024-05-09T03:52:35.162Z,59.99
2024-05-09T03:53:35.275Z,57.44
2024-05-09T03:54:35.184Z,59.31
2024-05-09T03:55:35.223Z,57.21
2024-05-09T03:56:35.355Z,60.08
2024-05-09T03:57:35.283Z,59.61
2024-05-09T03:58:35.333Z,58.97
2024-05-09T03:59:35.374Z,57.65
2024-05-09T04:00:38.695Z,60.63
2024-05-09T04:01:35.510Z,60.26
2024-05-09T04:02:35.441Z,59.08
2024-05-09T04:03:35.482Z,59.45
2024-05-09T04:04:35.470Z,57.87
2024-05-09T04:05:35.498Z,57.10
2024-05-09T04:06:35.414Z,57.42
2024-05-09T04:07:35.419Z,58.38
2024-05-09T04:08:35.565Z,57.68
2024-05-09T04:09:35.411Z,57.49
2024-05-09T04:10:35.809Z,56.95
2024-05-09T04:11:35.519Z,55.29
2024-05-09T04:12:35.457Z,58.77
2024-05-09T04:13:35.428Z,56.65
2024-05-09T04:14:35.495Z,55.45
2024-05-09T04:15:35.403Z,57.17
2024-05-09T04:16:35.459Z,55.58
2024-05-09T04:17:35.672Z,57.31
2024-05-09T04:18:35.504Z,57.11
2024-05-09T04:19:35.478Z,56.22
2024-05-09T04:20:39.051Z,55.31
2024-05-09T04:21:36.458Z,55.46
2024-05-09T04:22:35.504Z,55.68
2024-05-09T04:23:35.540Z,55.76
2024-05-09T04:24:35.442Z,56.06
2024-05-09T04:25:35.467Z,58.01
2024-05-09T04:26:35.541Z,56.91
2024-05-09T04:27:35.452Z,55.29
2024-05-09T04:28:35.442Z,55.73
2024-05-09T04:29:35.550Z,55.45
2024-05-09T04:30:39.258Z,56.57
2024-05-09T04:31:36.462Z,56.58
2024-05-09T04:33:35.715Z,56.89
2024-05-09T04:34:35.592Z,56.57
2024-05-09T04:35:35.524Z,56.55
2024-05-09T04:36:35.461Z,54.94
2024-05-09T04:37:35.503Z,53.18
2024-05-09T04:38:35.539Z,56.79
2024-05-09T04:39:36.483Z,54.58
2024-05-09T04:40:37.103Z,56.62
2024-05-09T04:41:35.560Z,56.09
2024-05-09T04:42:35.475Z,56.44
2024-05-09T04:43:35.501Z,56.28
2024-05-09T04:44:35.536Z,55.27
2024-05-09T04:45:35.881Z,56.76
2024-05-09T04:46:35.566Z,56.19
2024-05-09T04:47:42.968Z,50.00
2024-05-09T04:48:42.955Z,50.00
2024-05-09T04:49:42.872Z,50.00
2024-05-09T04:50:43.014Z,50.00
2024-05-09T04:51:42.878Z,50.00
2024-05-09T04:52:42.881Z,52.00
2024-05-09T04:54:42.893Z,53.41
2024-05-09T04:55:42.888Z,51.19
2024-05-09T04:56:42.966Z,50.43
2024-05-09T04:57:42.917Z,52.40
2024-05-09T04:58:42.896Z,53.26
2024-05-09T04:59:42.916Z,50.33
2024-05-09T05:00:43.267Z,52.46
2024-05-09T05:01:42.884Z,52.40
2024-05-09T05:02:43.142Z,52.25
2024-05-09T05:03:43.068Z,51.31
2024-05-09T05:04:42.953Z,52.40
2024-05-09T05:05:44.005Z,52.85
2024-05-09T05:06:42.911Z,50.00
2024-05-09T05:07:42.907Z,51.20
2024-05-09T05:08:42.939Z,52.65
2024-05-09T05:09:42.922Z,51.49
2024-05-09T05:10:42.970Z,51.50
2024-05-09T05:11:43.053Z,51.64
2024-05-09T05:12:42.954Z,55.18
2024-05-09T05:13:42.935Z,52.36
2024-05-09T05:14:42.906Z,53.81
2024-05-09T05:15:42.922Z,51.72
2024-05-09T05:16:42.926Z,53.03
2024-05-09T05:17:43.039Z,53.68
2024-05-09T05:18:42.991Z,54.26
2024-05-09T05:19:42.978Z,53.33
2024-05-09T05:20:43.127Z,53.51
2024-05-09T05:21:42.925Z,51.75
2024-05-09T05:22:42.948Z,53.17
2024-05-09T05:23:42.977Z,54.26
2024-05-09T05:24:42.964Z,54.06
2024-05-09T05:25:42.950Z,53.07
2024-05-09T05:26:42.979Z,54.04
2024-05-09T05:27:42.955Z,54.52
2024-05-09T05:28:42.951Z,51.13
2024-05-09T05:29:43.033Z,52.45
2024-05-09T05:30:42.987Z,53.49
2024-05-09T05:31:43.043Z,53.34
2024-05-09T05:32:43.342Z,55.99
2024-05-09T05:33:43.149Z,56.08
2024-05-09T05:34:43.076Z,54.59
2024-05-09T05:35:43.366Z,54.91
2024-05-09T05:36:43.113Z,54.36
2024-05-09T05:37:43.132Z,54.93
2024-05-09T05:38:43.254Z,54.77
2024-05-09T05:39:43.204Z,54.50
2024-05-09T05:40:43.193Z,54.64
2024-05-09T05:41:43.219Z,54.26
2024-05-09T05:42:43.227Z,52.44
2024-05-09T05:43:43.231Z,52.62
2024-05-09T05:44:43.267Z,53.02
2024-05-09T05:45:43.276Z,53.00
2024-05-09T05:46:43.301Z,52.13
2024-05-09T05:47:43.457Z,53.77
2024-05-09T05:48:43.610Z,54.34
2024-05-09T05:49:43.373Z,51.79
2024-05-09T05:50:43.423Z,54.13
2024-05-09T05:51:43.379Z,50.91
2024-05-09T05:52:43.412Z,51.77
2024-05-09T05:53:43.427Z,53.59
2024-05-09T05:54:43.463Z,54.72
2024-05-09T05:55:43.467Z,50.91
2024-05-09T05:56:43.519Z,53.91
2024-05-09T05:57:43.529Z,55.64
2024-05-09T05:58:43.543Z,54.74
2024-05-09T05:59:43.655Z,52.93
2024-05-09T06:00:43.583Z,52.82
2024-05-09T06:01:43.619Z,54.10
2024-05-09T06:02:43.856Z,53.63
2024-05-09T06:03:43.785Z,53.48
2024-05-09T06:04:43.793Z,53.15
2024-05-09T06:05:44.311Z,51.26
2024-05-09T06:06:43.708Z,53.09
2024-05-09T06:07:44.021Z,53.14
2024-05-09T06:08:43.890Z,52.48
2024-05-09T06:09:45.291Z,53.00
2024-05-09T06:10:43.885Z,53.24
2024-05-09T06:11:43.892Z,54.04
2024-05-09T06:12:43.759Z,52.79
2024-05-09T06:13:43.818Z,53.16
2024-05-09T06:14:43.779Z,52.23
2024-05-09T06:15:44.115Z,54.62
2024-05-09T06:16:43.830Z,54.16
2024-05-09T06:17:43.923Z,51.08
2024-05-09T06:18:43.891Z,53.25
2024-05-09T06:19:43.884Z,50.73
2024-05-09T06:20:44.440Z,52.55
2024-05-09T06:21:43.773Z,50.95
2024-05-09T06:22:43.800Z,51.52
2024-05-09T06:23:43.879Z,51.21
2024-05-09T06:24:43.818Z,53.54
2024-05-09T06:25:44.772Z,54.73
2024-05-09T06:26:43.886Z,54.73
2024-05-09T06:27:43.801Z,50.42
2024-05-09T06:28:43.813Z,51.86
2024-05-09T06:29:43.863Z,52.32
2024-05-09T06:30:43.799Z,52.10
2024-05-09T06:31:43.842Z,54.69
2024-05-09T06:32:44.031Z,53.05
2024-05-09T06:33:43.955Z,52.10
2024-05-09T06:34:43.972Z,52.80
2024-05-09T06:35:43.989Z,52.76
2024-05-09T06:36:43.814Z,53.88
2024-05-09T06:37:44.014Z,52.41
2024-05-09T06:38:43.857Z,52.72
2024-05-09T06:39:43.820Z,51.63
2024-05-09T06:40:44.626Z,52.90
2024-05-09T06:41:43.893Z,51.75
2024-05-09T06:42:43.840Z,50.32
2024-05-09T06:43:43.818Z,50.00
2024-05-09T06:44:43.881Z,50.43
2024-05-09T06:45:43.816Z,52.78
2024-05-09T06:46:43.845Z,50.75
2024-05-09T06:47:43.973Z,52.65
2024-05-09T06:48:43.930Z,52.82
2024-05-09T06:49:43.844Z,53.50
2024-05-09T06:50:43.864Z,52.46
2024-05-09T06:51:43.837Z,53.62
2024-05-09T06:52:43.835Z,54.02
2024-05-09T06:53:43.839Z,53.02
2024-05-09T06:54:43.827Z,52.00
2024-05-09T06:55:43.837Z,52.74
2024-05-09T06:56:43.933Z,50.49
2024-05-09T06:57:43.837Z,53.52
2024-05-09T06:58:43.829Z,51.84
2024-05-09T06:59:43.896Z,54.45
2024-05-09T07:00:43.988Z,53.25
2024-05-09T07:01:43.879Z,52.17
2024-05-09T07:02:44.006Z,53.92
2024-05-09T07:03:43.962Z,53.82
2024-05-09T07:04:43.870Z,53.01
2024-05-09T07:05:43.894Z,52.05
2024-05-09T07:06:43.869Z,54.00
2024-05-09T07:07:43.859Z,52.04
2024-05-09T07:08:43.929Z,51.04
2024-05-09T07:09:44.866Z,51.12
2024-05-09T07:10:43.936Z,51.39
2024-05-09T07:11:43.956Z,52.48
2024-05-09T07:12:44.017Z,52.25
2024-05-09T07:13:43.849Z,54.23
2024-05-09T07:14:43.947Z,51.02
2024-05-09T07:15:43.927Z,52.02
2024-05-09T07:16:43.842Z,52.79
2024-05-09T07:17:44.031Z,52.74
2024-05-09T07:18:44.015Z,51.18
2024-05-09T07:19:43.910Z,51.97
2024-05-09T07:20:43.903Z,50.00
2024-05-09T07:21:43.838Z,50.77
2024-05-09T07:22:43.864Z,51.30
2024-05-09T07:23:46.824Z,52.29
2024-05-09T07:24:43.876Z,50.49
2024-05-09T07:25:43.856Z,54.23
2024-05-09T07:26:43.897Z,52.04
2024-05-09T07:27:43.865Z,51.92
2024-05-09T07:28:43.856Z,53.54
2024-05-09T07:29:43.962Z,50.45
2024-05-09T07:30:43.878Z,53.67
2024-05-09T07:31:43.849Z,52.13
2024-05-09T07:32:44.097Z,53.38
2024-05-09T07:33:43.966Z,53.11
2024-05-09T07:34:43.869Z,52.11
2024-05-09T07:35:43.943Z,50.68
2024-05-09T07:36:43.880Z,51.08
2024-05-09T07:37:43.892Z,51.18
2024-05-09T07:38:43.985Z,51.02
2024-05-09T07:39:43.873Z,52.71
2024-05-09T07:40:43.887Z,53.96
2024-05-09T07:41:43.923Z,52.48
2024-05-09T07:42:43.904Z,50.93
2024-05-09T07:43:43.903Z,51.17
2024-05-09T07:44:43.943Z,52.59
2024-05-09T07:45:51.302Z,52.47
2024-05-09T07:47:48.282Z,52.54
2024-05-09T07:51:32.047Z,52.76
2024-05-09T07:53:17.133Z,52.85
2024-05-09T07:53:34.452Z,52.89
2024-05-09T07:53:48.359Z,52.99
2024-05-09T07:54:45.049Z,53.09
2024-05-09T07:55:44.119Z,54.76
2024-05-09T07:56:44.328Z,57.14
2024-05-09T07:57:43.922Z,56.77
2024-05-09T07:58:43.902Z,59.62
2024-05-09T07:59:43.927Z,57.61
2024-05-09T08:00:44.010Z,54.18
2024-05-09T08:01:44.044Z,57.44
2024-05-09T08:02:43.988Z,52.61
2024-05-09T08:03:44.110Z,51.99
2024-05-09T08:04:44.041Z,54.26
2024-05-09T08:05:44.067Z,50.72
2024-05-09T08:06:44.587Z,50.06
2024-05-09T08:07:43.945Z,50.00
2024-05-09T08:08:43.948Z,50.00
2024-05-09T08:09:44.030Z,51.92
2024-05-09T08:10:44.022Z,51.85
2024-05-09T08:11:43.960Z,52.36
2024-05-09T08:12:43.978Z,53.16
2024-05-09T08:13:43.961Z,52.11
2024-05-09T08:14:43.945Z,50.98
2024-05-09T08:15:43.992Z,50.60
2024-05-09T08:16:44.034Z,52.04
2024-05-09T08:17:43.996Z,51.18
2024-05-09T08:18:44.020Z,51.03
2024-05-09T08:19:43.993Z,50.20
2024-05-09T08:20:43.952Z,53.39
2024-05-09T08:21:43.953Z,52.42
2024-05-09T08:22:43.972Z,51.69
2024-05-09T08:23:43.962Z,52.13
2024-05-09T08:24:44.031Z,52.46
2024-05-09T08:25:43.941Z,50.00
2024-05-09T08:26:43.960Z,52.80
2024-05-09T08:27:44.021Z,53.48
2024-05-09T08:28:43.978Z,50.95
2024-05-09T08:29:44.052Z,51.65
2024-05-09T08:30:44.196Z,52.80
2024-05-09T08:31:43.977Z,50.83
2024-05-09T08:32:44.104Z,51.82
2024-05-09T08:33:44.138Z,52.59
2024-05-09T08:34:44.030Z,51.88
2024-05-09T08:35:43.983Z,53.12
2024-05-09T08:36:44.004Z,51.40
2024-05-09T08:37:44.060Z,51.66
2024-05-09T08:38:43.981Z,52.58
2024-05-09T08:39:44.000Z,49.56
2024-05-09T08:40:44.167Z,51.80
2024-05-09T08:41:43.993Z,49.73
2024-05-09T08:42:44.044Z,50.60
2024-05-09T08:43:43.986Z,49.60
2024-05-09T08:44:43.969Z,51.74
2024-05-09T08:45:45.288Z,51.55
2024-05-09T08:46:44.000Z,51.20
2024-05-09T08:47:44.151Z,50.57
2024-05-09T08:48:44.270Z,50.68
2024-05-09T08:49:44.052Z,52.29
2024-05-09T08:50:45.080Z,51.53
2024-05-09T08:51:44.024Z,50.00
2024-05-09T08:52:44.047Z,52.23
2024-05-09T08:53:43.990Z,53.50
2024-05-09T08:54:44.034Z,51.09
2024-05-09T08:55:44.561Z,51.59
2024-05-09T08:56:44.009Z,51.32
2024-05-09T08:57:44.062Z,54.31
2024-05-09T08:58:44.018Z,53.40
2024-05-09T08:59:43.983Z,50.42
2024-05-09T09:00:44.321Z,51.79
2024-05-09T09:01:44.153Z,52.42
2024-05-09T09:02:44.228Z,51.37
2024-05-09T09:03:44.213Z,51.58
2024-05-09T09:04:44.179Z,53.57
2024-05-09T09:05:44.087Z,50.07
2024-05-09T09:06:44.217Z,52.86
2024-05-09T09:07:44.027Z,50.78
2024-05-09T09:08:43.991Z,51.19
2024-05-09T09:09:44.317Z,50.57
2024-05-09T09:10:44.209Z,52.59
2024-05-09T09:11:44.043Z,52.80
2024-05-09T09:12:44.086Z,52.88
2024-05-09T09:13:44.018Z,51.27
2024-05-09T09:14:44.055Z,51.45
2024-05-09T09:15:44.063Z,50.81
2024-05-09T09:16:44.017Z,50.92
2024-05-09T09:17:44.098Z,51.41
2024-05-09T09:18:44.264Z,53.21
2024-05-09T09:19:44.102Z,52.88
2024-05-09T09:20:44.180Z,52.07
2024-05-09T09:21:44.071Z,52.13
2024-05-09T09:22:44.053Z,54.53
2024-05-09T09:23:44.051Z,53.29
2024-05-09T09:24:44.044Z,55.38
2024-05-09T09:25:44.034Z,54.59
2024-05-09T09:26:44.012Z,51.71
2024-05-09T09:27:44.076Z,52.73
2024-05-09T09:28:44.068Z,52.03
2024-05-09T09:29:44.035Z,52.30
2024-05-09T09:30:44.107Z,52.18
2024-05-09T09:31:44.044Z,52.86
2024-05-09T09:32:44.120Z,52.06
2024-05-09T09:33:44.282Z,52.87
2024-05-09T09:34:44.094Z,50.42
2024-05-09T09:35:44.062Z,51.89
2024-05-09T09:36:44.082Z,52.18
2024-05-09T09:37:44.054Z,53.46
2024-05-09T09:38:44.090Z,51.69
2024-05-09T09:39:48.762Z,51.74
2024-05-09T09:40:49.127Z,51.85
2024-05-09T09:41:44.060Z,51.92
2024-05-09T09:42:44.115Z,52.60
2024-05-09T09:43:44.066Z,52.54
2024-05-09T09:44:47.918Z,52.02
2024-05-09T09:45:45.110Z,51.96
2024-05-09T09:46:44.049Z,52.52
2024-05-09T09:47:44.192Z,52.34
2024-05-09T09:48:44.272Z,53.20
2024-05-09T09:49:44.215Z,51.77
2024-05-09T09:50:44.070Z,51.86
2024-05-09T09:51:44.142Z,51.38
2024-05-09T09:52:44.063Z,50.00
2024-05-09T09:53:44.063Z,52.96
2024-05-09T09:54:44.150Z,50.77
2024-05-09T09:55:44.085Z,51.15
2024-05-09T09:56:44.085Z,51.37
2024-05-09T09:57:44.125Z,50.00
2024-05-09T09:58:44.090Z,52.02
2024-05-09T09:59:44.128Z,52.18
2024-05-09T10:00:44.487Z,53.35
2024-05-09T10:01:44.165Z,51.63
2024-05-09T10:02:44.119Z,51.98
2024-05-09T10:03:44.257Z,53.10
2024-05-09T10:04:44.254Z,51.35
2024-05-09T10:05:46.467Z,51.75
2024-05-09T10:06:44.144Z,51.14
2024-05-09T10:07:44.127Z,53.12
2024-05-09T10:08:44.589Z,52.05
2024-05-09T10:09:44.180Z,52.50
2024-05-09T10:10:44.440Z,52.97
2024-05-09T10:11:49.169Z,52.90
2024-05-09T10:12:45.139Z,53.08
2024-05-09T10:13:44.132Z,53.23
2024-05-09T10:14:44.149Z,53.74
2024-05-09T10:15:44.157Z,53.38
2024-05-09T10:16:44.138Z,55.26
2024-05-09T10:17:44.240Z,55.40
2024-05-09T10:18:44.310Z,55.30
2024-05-09T10:19:44.247Z,54.08
2024-05-09T10:20:44.271Z,51.24
2024-05-09T10:21:44.226Z,53.92
2024-05-09T10:22:44.136Z,52.20
2024-05-09T10:23:44.579Z,51.28
2024-05-09T10:24:44.192Z,51.58
2024-05-09T10:25:44.186Z,52.51
2024-05-09T10:26:44.244Z,52.06
2024-05-09T10:27:44.307Z,52.95
2024-05-09T10:28:44.346Z,51.90
2024-05-09T10:29:44.362Z,51.88
2024-05-09T10:30:45.276Z,52.40
2024-05-09T10:31:44.694Z,50.05
2024-05-09T10:32:44.703Z,53.05
2024-05-09T10:33:44.778Z,53.08
2024-05-09T10:34:44.732Z,52.14
2024-05-09T10:35:44.674Z,51.41
2024-05-09T10:36:44.784Z,53.28
2024-05-09T10:37:44.779Z,52.42
2024-05-09T10:38:44.830Z,51.33
2024-05-09T10:39:44.899Z,52.25
2024-05-09T10:40:44.978Z,51.29
2024-05-09T10:41:44.987Z,52.29
2024-05-09T10:42:45.077Z,51.93
2024-05-09T10:43:45.089Z,52.62
2024-05-09T10:44:45.118Z,51.72
2024-05-09T10:45:45.223Z,52.31
2024-05-09T10:46:45.255Z,52.16
2024-05-09T10:47:45.408Z,51.19
2024-05-09T10:48:45.551Z,53.94
2024-05-09T10:49:45.434Z,53.10
2024-05-09T10:50:45.492Z,54.15
2024-05-09T10:51:45.558Z,52.22
2024-05-09T10:52:45.571Z,52.61
2024-05-09T10:53:46.156Z,50.07
2024-05-09T10:54:45.738Z,50.00
2024-05-09T10:55:45.773Z,52.65
2024-05-09T10:56:45.809Z,53.63
2024-05-09T10:57:45.894Z,51.28
2024-05-09T10:58:45.958Z,51.56
2024-05-09T10:59:45.955Z,52.96
2024-05-09T11:00:46.133Z,53.11
2024-05-09T11:01:46.172Z,52.46
2024-05-09T11:02:46.218Z,51.25
2024-05-09T11:03:46.510Z,53.43
2024-05-09T11:04:46.296Z,51.24
2024-05-09T11:05:46.362Z,53.00
2024-05-09T11:06:46.426Z,52.91
2024-05-09T11:07:46.403Z,53.94
2024-05-09T11:08:46.617Z,51.52
2024-05-09T11:09:46.533Z,53.08
2024-05-09T11:10:46.709Z,51.70
2024-05-09T11:11:46.722Z,51.05
2024-05-09T11:12:46.766Z,54.60
2024-05-09T11:13:46.838Z,51.73
2024-05-09T11:14:46.846Z,52.25
2024-05-09T11:15:46.992Z,52.37
2024-05-09T11:16:47.012Z,52.60
2024-05-09T11:17:47.169Z,51.27
2024-05-09T11:18:47.269Z,51.88
2024-05-09T11:19:47.212Z,52.71
2024-05-09T11:20:47.334Z,51.77
2024-05-09T11:21:47.377Z,51.75
2024-05-09T11:22:47.418Z,51.87
2024-05-09T11:23:47.464Z,53.38
2024-05-09T11:24:47.574Z,52.25
2024-05-09T11:25:47.641Z,52.16
2024-05-09T11:26:47.708Z,52.33
2024-05-09T11:27:47.811Z,50.89
2024-05-09T11:28:47.877Z,51.48
2024-05-09T11:29:47.923Z,52.46
2024-05-09T11:30:48.046Z,52.16
2024-05-09T11:31:48.162Z,52.47
2024-05-09T11:32:48.251Z,52.41
2024-05-09T11:33:48.371Z,54.75
2024-05-09T11:34:48.262Z,53.75
2024-05-09T11:35:48.321Z,53.71
2024-05-09T11:36:48.489Z,54.43
2024-05-09T11:37:48.497Z,52.14
2024-05-09T11:38:48.565Z,50.22
2024-05-09T11:39:48.666Z,52.34
2024-05-09T11:40:48.763Z,52.87
2024-05-09T11:41:48.725Z,51.15
2024-05-09T11:42:50.832Z,52.60
2024-05-09T11:43:48.810Z,52.52
2024-05-09T11:44:48.815Z,51.70
2024-05-09T11:45:48.827Z,50.93
2024-05-09T11:46:48.812Z,52.86
2024-05-09T11:47:48.901Z,52.23
2024-05-09T11:48:49.096Z,52.15
2024-05-09T11:49:48.854Z,50.00
2024-05-09T11:50:48.796Z,52.54
2024-05-09T11:51:48.867Z,50.92
2024-05-09T11:52:48.793Z,51.48
2024-05-09T11:53:49.168Z,51.82
2024-05-09T11:54:48.846Z,52.03
2024-05-09T11:55:48.858Z,52.00
2024-05-09T11:56:48.829Z,50.58
2024-05-09T11:57:48.837Z,52.13
2024-05-09T11:58:48.859Z,51.86
2024-05-09T11:59:48.881Z,51.32
2024-05-09T12:00:49.070Z,52.32
2024-05-09T12:01:49.030Z,53.16
2024-05-09T12:02:48.846Z,52.76
2024-05-09T12:03:48.966Z,52.42
2024-05-09T12:04:49.003Z,53.41
2024-05-09T12:05:48.949Z,51.27
2024-05-09T12:06:48.886Z,53.17
2024-05-09T12:07:48.862Z,52.11
2024-05-09T12:08:48.858Z,51.08
2024-05-09T12:09:48.959Z,54.05
2024-05-09T12:10:49.200Z,52.92
2024-05-09T12:11:48.984Z,50.89
2024-05-09T12:12:49.068Z,50.37
2024-05-09T12:13:49.104Z,50.90
2024-05-09T12:14:49.172Z,51.31
2024-05-09T12:15:49.301Z,51.73
2024-05-09T12:16:49.317Z,50.64
2024-05-09T12:17:50.941Z,50.47
2024-05-09T12:18:49.568Z,50.84
2024-05-09T12:19:49.513Z,51.48
2024-05-09T12:20:49.572Z,51.02
2024-05-09T12:21:49.659Z,52.82
2024-05-09T12:22:49.737Z,51.99
2024-05-09T12:23:49.777Z,52.03
2024-05-09T12:24:49.887Z,52.32
2024-05-09T12:25:49.958Z,52.50
2024-05-09T12:26:50.007Z,53.22
2024-05-09T12:27:50.133Z,50.96
2024-05-09T12:28:50.131Z,54.05
2024-05-09T12:29:50.225Z,52.72
2024-05-09T12:30:50.375Z,52.01
2024-05-09T12:31:50.364Z,52.23
2024-05-09T12:32:50.511Z,50.50
2024-05-09T12:33:50.564Z,54.15
2024-05-09T12:34:50.538Z,52.83
2024-05-09T12:35:51.170Z,51.88
2024-05-09T12:36:50.668Z,52.90
2024-05-09T12:37:50.723Z,52.70
2024-05-09T12:38:51.154Z,50.49
2024-05-09T12:39:50.901Z,51.93
2024-05-09T12:40:51.078Z,51.08
2024-05-09T12:41:51.008Z,51.67
2024-05-09T12:42:51.168Z,51.07
2024-05-09T12:43:51.114Z,50.91
2024-05-09T12:44:51.198Z,51.65
2024-05-09T12:45:51.319Z,50.58
2024-05-09T12:46:51.334Z,49.83
2024-05-09T12:47:51.470Z,53.06
2024-05-09T12:48:51.656Z,51.71
2024-05-09T12:49:51.586Z,51.59
2024-05-09T12:50:51.688Z,52.82
2024-05-09T12:51:51.693Z,52.40
2024-05-09T12:52:51.749Z,53.76
2024-05-09T12:53:51.840Z,53.18
2024-05-09T12:54:51.927Z,55.64
2024-05-09T12:55:56.761Z,52.60
2024-05-09T12:56:52.984Z,52.68
2024-05-09T12:57:52.032Z,52.78